Terminal Aerodrome Forecast
Issued by NWS Charleston, WV

Current Version | Previous Version | Graphics & Text | Print | Product List | Glossary On
Versions: 1 2 3 4 5 6 7 8 9 10 11 12 13 14 15 16 17 18 19 20 21 22 23 24 25 26
842
FTUS41 KRLX 212331
TAFPKB
TAF
KPKB 212331Z 2200/2224 VRB02KT P6SM BKN100
     FM220300 00000KT P6SM BKN050
     FM220600 14002KT P6SM -SHRA OVC040
     FM221400 16005KT P6SM OVC030=

USA.gov is the U.S. government's official web portal to all federal, state and local government web resources and services.